Arpin, Wisconsin
Current Conditions -  °F | °C
As of 6:21 PM on Friday 28 Nov 2014 (Local Time) from KMFI Reporting Station
Scattered Clouds Scattered Clouds  
Wind Chill: 13°   Ceiling: Unl
Heat Index: 21°   Visibility: 10mi
Dew Point: 15°   Wind: 6mph
Humidity: 78%   Direction: 90°E
Pressure: 29.87"   Gusts: NA
Location:  44.54°N, 90.04°W
Report Text: KMFI 290021Z AUTO 09005KT 10SM SCT018 SCT090 M06/M09 A2987 RMK AO2 SNE06 P0000 T10611094
Loading
Personal Weather Stations






























Interactive Weather Map New forecast layout! Learn more

10-Day Weather Forecast

Advertisements
Track Severe Weather on mobile